TimeAST,TemperatureF,Dew PointF,Humidity,Sea Level PressureIn,VisibilityMPH,Wind Direction,Wind SpeedMPH,Gust SpeedMPH,PrecipitationIn,Events,Conditions,WindDirDegrees,DateUTC
12:00 AM,82.4,73.4,74,29.95,6.2,ESE,5.8,-,N/A,,Partly Cloudy,110,2011-10-07 04:00:00
1:00 AM,82.4,73.4,74,29.92,6.2,ESE,6.9,-,N/A,,Partly Cloudy,110,2011-10-07 05:00:00
2:00 AM,80.6,73.4,79,29.89,6.2,East,6.9,-,N/A,,Partly Cloudy,100,2011-10-07 06:00:00
3:00 AM,80.6,73.4,79,29.89,6.2,ESE,5.8,-,N/A,,Partly Cloudy,110,2011-10-07 07:00:00
4:00 AM,80.6,73.4,79,29.89,6.2,East,4.6,-,N/A,,Partly Cloudy,90,2011-10-07 08:00:00
5:00 AM,80.6,73.4,79,29.89,6.2,East,6.9,-,N/A,,Partly Cloudy,90,2011-10-07 09:00:00
6:00 AM,80.6,73.4,79,29.89,6.2,East,4.6,-,N/A,,Partly Cloudy,100,2011-10-07 10:00:00
7:00 AM,82.4,73.4,74,29.92,6.2,East,6.9,-,N/A,,Partly Cloudy,90,2011-10-07 11:00:00
8:00 AM,84,74,64,29.95,37,ESE,9.2,,,,Scattered Clouds,120,2011-10-07 12:00:00
8:00 AM,84.2,73.4,70,29.95,6.2,ESE,6.9,-,N/A,,Partly Cloudy,110,2011-10-07 12:00:00
9:00 AM,84.2,73.4,70,29.95,6.2,ESE,8.1,-,N/A,,Scattered Clouds,120,2011-10-07 13:00:00
10:00 AM,86.0,73.4,66,29.98,6.2,SE,10.4,-,N/A,,Partly Cloudy,140,2011-10-07 14:00:00
11:00 AM,85,73,60,29.97,47,SE,6.9,,,,Mostly Cloudy,130,2011-10-07 15:00:00
11:00 AM,86.0,73.4,66,29.95,6.2,SE,6.9,-,N/A,,Mostly Cloudy,130,2011-10-07 15:00:00
12:00 PM,86.0,73.4,66,29.95,6.2,SE,9.2,-,N/A,,Mostly Cloudy,130,2011-10-07 16:00:00
1:00 PM,86.0,73.4,66,29.92,6.2,SE,9.2,-,N/A,,Scattered Clouds,140,2011-10-07 17:00:00
2:00 PM,86,74,59,29.92,44,ESE,8.1,,,,Partly Cloudy,120,2011-10-07 18:00:00
2:00 PM,86.0,73.4,66,29.92,6.2,ESE,8.1,-,N/A,,Scattered Clouds,110,2011-10-07 18:00:00
3:00 PM,86.0,71.6,62,29.89,6.2,ESE,10.4,-,N/A,,Partly Cloudy,110,2011-10-07 19:00:00
4:00 PM,84.2,73.4,70,29.89,6.2,East,10.4,-,N/A,,Scattered Clouds,100,2011-10-07 20:00:00
5:00 PM,85,74,63,29.91,44,ESE,8.1,,,,Partly Cloudy,110,2011-10-07 21:00:00
5:00 PM,84.2,73.4,70,29.92,6.2,ESE,8.1,-,N/A,,Scattered Clouds,110,2011-10-07 21:00:00
6:00 PM,82.4,73.4,74,29.92,6.2,ESE,8.1,-,N/A,,Partly Cloudy,120,2011-10-07 22:00:00
7:00 PM,82.4,73.4,74,29.92,6.2,ESE,8.1,-,N/A,,Partly Cloudy,120,2011-10-07 23:00:00
8:00 PM,82,75,74,29.96,31,ESE,5.8,,,,Scattered Clouds,110,2011-10-08 00:00:00
8:00 PM,82.4,75.2,79,29.95,6.2,ESE,5.8,-,N/A,,Partly Cloudy,110,2011-10-08 00:00:00
9:00 PM,82.4,73.4,74,29.95,6.2,ESE,6.9,-,N/A,,Partly Cloudy,120,2011-10-08 01:00:00
10:00 PM,82.4,73.4,74,29.95,6.2,ESE,6.9,-,N/A,,Partly Cloudy,110,2011-10-08 02:00:00
11:00 PM,82,74,70,29.97,19,East,6.9,,,,Scattered Clouds,100,2011-10-08 03:00:00
11:00 PM,-9999,-9999,N/A,29.95,6.2,East,6.9,-,N/A,,Partly Cloudy,100,2011-10-08 03:00:00